createdAt,value
2019-02-16T00:01:11.182Z,69.50
2019-02-16T00:03:40.663Z,80.90
2019-02-16T00:06:10.087Z,68.63
2019-02-16T00:08:39.666Z,110.83
2019-02-16T00:11:09.145Z,97.77
2019-02-16T00:13:38.581Z,84.97
2019-02-16T00:16:07.986Z,83.47
2019-02-16T00:18:37.479Z,86.53
2019-02-16T00:21:06.846Z,86.80
2019-02-16T00:23:36.296Z,83.93
2019-02-16T00:26:05.661Z,76.77
2019-02-16T00:28:35.132Z,74.17
2019-02-16T00:31:04.520Z,64.57
2019-02-16T00:33:33.948Z,65.70
2019-02-16T00:36:03.578Z,62.20
2019-02-16T00:38:33.007Z,64.53
2019-02-16T00:41:02.409Z,69.47
2019-02-16T00:43:31.820Z,69.90
2019-02-16T00:46:01.247Z,68.00
2019-02-16T00:48:30.679Z,64.97
2019-02-16T00:51:00.149Z,66.50
2019-02-16T00:53:29.522Z,62.10
2019-02-16T00:55:58.975Z,66.97
2019-02-16T00:58:28.443Z,62.23
2019-02-16T01:00:57.870Z,53.10
2019-02-16T01:03:27.309Z,53.00
2019-02-16T01:05:56.840Z,57.70
2019-02-16T01:08:26.251Z,50.10
2019-02-16T01:10:55.623Z,58.03
2019-02-16T01:13:25.078Z,56.27
2019-02-16T01:15:54.438Z,50.73
2019-02-16T01:18:23.835Z,51.17
2019-02-16T01:20:53.189Z,57.90
2019-02-16T01:23:22.570Z,55.20
2019-02-16T01:25:52.117Z,60.60
2019-02-16T01:28:21.568Z,54.07
2019-02-16T01:30:50.930Z,51.60
2019-02-16T01:33:20.407Z,52.90
2019-02-16T01:35:49.925Z,50.23
2019-02-16T01:38:19.414Z,50.10
2019-02-16T01:40:48.843Z,45.60
2019-02-16T01:43:18.263Z,46.33
2019-02-16T01:45:47.655Z,50.00
2019-02-16T01:48:17.129Z,46.63
2019-02-16T01:50:46.543Z,44.77
2019-02-16T01:53:15.989Z,46.50
2019-02-16T01:55:47.437Z,51.13
2019-02-16T01:58:16.547Z,50.03
2019-02-16T02:00:45.925Z,44.00
2019-02-16T02:03:15.400Z,48.17
2019-02-16T02:05:44.871Z,45.03
2019-02-16T02:08:14.440Z,40.67
2019-02-16T02:10:43.783Z,43.53
2019-02-16T02:13:13.162Z,39.10
2019-02-16T02:15:42.648Z,39.47
2019-02-16T02:18:12.002Z,37.13
2019-02-16T02:20:41.383Z,41.10
2019-02-16T02:23:10.828Z,41.20
2019-02-16T02:25:40.283Z,46.57
2019-02-16T02:28:09.717Z,43.23
2019-02-16T02:30:39.147Z,41.07
2019-02-16T02:33:08.516Z,43.37
2019-02-16T02:35:38.013Z,43.20
2019-02-16T02:38:07.470Z,46.60
2019-02-16T02:40:36.917Z,61.00
2019-02-16T02:43:06.332Z,50.37
2019-02-16T02:45:35.750Z,53.97
2019-02-16T02:48:05.117Z,56.00
2019-02-16T02:50:34.568Z,54.60
2019-02-16T02:53:04.095Z,55.00
2019-02-16T02:55:33.556Z,58.93
2019-02-16T02:58:03.014Z,59.77
2019-02-16T03:00:32.520Z,64.27
2019-02-16T03:03:02.000Z,66.13
2019-02-16T03:05:31.364Z,68.90
2019-02-16T03:08:00.792Z,57.53
2019-02-16T03:10:30.197Z,53.07
2019-02-16T03:12:59.615Z,55.03
2019-02-16T03:15:29.081Z,51.17
2019-02-16T03:17:58.466Z,52.57
2019-02-16T03:20:27.926Z,49.93
2019-02-16T03:23:13.613Z,53.37
2019-02-16T03:26:08.038Z,57.30
2019-02-16T03:28:53.429Z,58.80
2019-02-16T03:31:54.321Z,54.83
2019-02-16T03:34:31.560Z,54.50
2019-02-16T03:37:40.736Z,49.17
2019-02-16T03:40:10.201Z,44.87
2019-02-16T03:42:39.577Z,50.07
2019-02-16T03:45:09.181Z,45.70
2019-02-16T03:47:38.619Z,42.23
2019-02-16T03:50:08.528Z,41.43
2019-02-16T03:52:38.034Z,40.33
2019-02-16T03:55:07.429Z,36.87
2019-02-16T03:57:36.859Z,37.00
2019-02-16T04:00:07.107Z,36.17
2019-02-16T04:02:36.565Z,37.13
2019-02-16T04:05:06.084Z,40.10
2019-02-16T04:07:36.023Z,36.53
2019-02-16T04:10:05.930Z,38.70
2019-02-16T04:12:35.811Z,39.10
2019-02-16T04:15:05.213Z,37.13
2019-02-16T04:17:34.585Z,39.93
2019-02-16T04:20:04.444Z,47.70
2019-02-16T04:22:33.876Z,40.83
2019-02-16T04:25:03.271Z,39.93
2019-02-16T04:27:32.671Z,41.53
2019-02-16T04:30:02.053Z,44.27
2019-02-16T04:32:31.497Z,41.07
2019-02-16T04:35:00.987Z,36.03
2019-02-16T04:37:30.431Z,38.63
2019-02-16T04:39:59.834Z,39.90
2019-02-16T04:42:29.270Z,41.53
2019-02-16T04:44:58.802Z,36.50
2019-02-16T04:47:28.262Z,38.10
2019-02-16T04:49:57.754Z,41.07
2019-02-16T04:52:34.307Z,43.33
2019-02-16T04:54:58.311Z,44.30
2019-02-16T04:57:27.767Z,48.27
2019-02-16T04:59:57.198Z,43.87
2019-02-16T05:02:26.621Z,46.13
2019-02-16T05:04:56.040Z,44.90
2019-02-16T05:07:25.466Z,46.67
2019-02-16T05:09:54.967Z,37.67
2019-02-16T05:12:24.298Z,34.83
2019-02-16T05:14:53.740Z,36.80
2019-02-16T05:17:23.217Z,37.30
2019-02-16T05:19:52.683Z,37.73
2019-02-16T05:22:22.083Z,39.23
2019-02-16T05:24:51.682Z,43.50
2019-02-16T05:27:21.113Z,40.00
2019-02-16T05:29:50.605Z,40.80
2019-02-16T05:32:19.975Z,37.83
2019-02-16T05:34:49.342Z,33.53
2019-02-16T05:37:18.803Z,33.13
2019-02-16T05:39:48.168Z,36.63
2019-02-16T05:42:17.638Z,37.57
2019-02-16T05:44:47.148Z,39.60
2019-02-16T05:47:16.600Z,43.17
2019-02-16T05:49:45.967Z,38.77
2019-02-16T05:52:15.470Z,38.00
2019-02-16T05:54:44.853Z,43.47
2019-02-16T05:57:14.252Z,40.27
2019-02-16T05:59:43.710Z,42.20
2019-02-16T06:02:13.132Z,45.03
2019-02-16T06:04:42.516Z,41.60
2019-02-16T06:07:11.975Z,42.20
2019-02-16T06:09:41.826Z,43.47
2019-02-16T06:12:11.305Z,46.00
2019-02-16T06:14:43.919Z,48.07
2019-02-16T06:17:13.388Z,49.10
2019-02-16T06:19:43.289Z,46.67
2019-02-16T06:22:12.743Z,48.10
2019-02-16T06:24:42.166Z,50.57
2019-02-16T06:27:11.559Z,46.83
2019-02-16T06:29:40.931Z,47.07
2019-02-16T06:32:10.424Z,43.77
2019-02-16T06:34:39.900Z,42.30
2019-02-16T06:37:28.250Z,41.97
2019-02-16T06:39:57.622Z,40.93
2019-02-16T06:42:27.119Z,42.87
2019-02-16T06:44:56.545Z,41.63
2019-02-16T06:47:25.908Z,49.50
2019-02-16T06:49:55.290Z,46.33
2019-02-16T06:52:24.770Z,48.77
2019-02-16T06:54:54.171Z,46.20
2019-02-16T06:57:31.163Z,44.30
2019-02-16T07:00:00.811Z,44.07
2019-02-16T07:02:31.061Z,41.83
2019-02-16T07:05:00.530Z,46.73
2019-02-16T07:07:29.901Z,54.53
2019-02-16T07:09:59.567Z,52.93
2019-02-16T07:12:29.040Z,51.63
2019-02-16T07:14:58.427Z,50.97
2019-02-16T07:17:55.841Z,50.63
2019-02-16T07:20:25.943Z,43.50
2019-02-16T07:22:55.307Z,48.70
2019-02-16T07:25:24.713Z,49.87
2019-02-16T07:27:54.228Z,47.40
2019-02-16T07:30:23.666Z,47.50
2019-02-16T07:32:53.062Z,43.60
2019-02-16T07:35:22.500Z,39.77
2019-02-16T07:37:51.908Z,44.90
2019-02-16T07:40:21.339Z,54.00
2019-02-16T07:42:59.749Z,53.77
2019-02-16T07:45:49.692Z,47.80
2019-02-16T07:48:38.040Z,46.23
2019-02-16T07:51:14.286Z,48.07
2019-02-16T07:54:02.633Z,57.10
2019-02-16T07:56:45.133Z,57.73
2019-02-16T07:59:33.500Z,57.97
2019-02-16T08:02:17.533Z,47.27
2019-02-16T08:04:54.076Z,48.93
2019-02-16T08:07:36.946Z,46.40
2019-02-16T08:10:34.706Z,44.33
2019-02-16T08:13:29.206Z,48.73
2019-02-16T08:16:11.685Z,43.67
2019-02-16T08:18:53.859Z,56.03
2019-02-16T08:21:35.451Z,58.03
2019-02-16T08:24:32.907Z,72.70
2019-02-16T08:27:24.242Z,210.73
2019-02-16T08:30:01.951Z,63.70
2019-02-16T08:32:37.903Z,56.60
2019-02-16T08:35:32.380Z,42.87
2019-02-16T08:38:29.608Z,91.90
2019-02-16T08:41:17.924Z,46.83
2019-02-16T08:44:06.300Z,75.37
2019-02-16T08:46:52.329Z,89.50
2019-02-16T08:49:55.693Z,164.90
2019-02-16T08:52:34.332Z,110.90
2019-02-16T08:55:25.371Z,99.83
2019-02-16T08:58:04.823Z,154.37
2019-02-16T09:00:47.361Z,81.27
2019-02-16T09:03:44.546Z,105.47
2019-02-16T09:06:31.271Z,59.57
2019-02-16T09:09:19.557Z,55.43
2019-02-16T09:12:02.787Z,60.53
2019-02-16T09:14:50.886Z,63.10
2019-02-16T09:17:39.283Z,62.27
2019-02-16T09:20:27.675Z,60.33
2019-02-16T09:23:03.471Z,69.97
2019-02-16T09:25:50.264Z,79.30
2019-02-16T09:28:38.616Z,90.70
2019-02-16T09:31:16.462Z,91.23
2019-02-16T09:34:19.867Z,87.63
2019-02-16T09:37:02.104Z,105.93
2019-02-16T09:39:46.576Z,103.20
2019-02-16T09:42:41.330Z,96.73
2019-02-16T09:45:27.934Z,92.33
2019-02-16T09:48:18.106Z,98.63
2019-02-16T09:51:05.734Z,106.17
2019-02-16T09:53:54.068Z,114.17
2019-02-16T09:56:46.422Z,103.27
2019-02-16T09:59:46.793Z,106.80
2019-02-16T10:02:33.498Z,99.53
2019-02-16T10:05:33.858Z,106.37
2019-02-16T10:08:34.298Z,102.87
2019-02-16T10:11:22.718Z,103.53
2019-02-16T10:14:13.870Z,107.00
2019-02-16T10:16:51.934Z,108.63
2019-02-16T10:19:33.712Z,110.73
2019-02-16T10:22:19.607Z,103.27
2019-02-16T10:24:56.461Z,106.67
2019-02-16T10:28:02.917Z,102.90
2019-02-16T10:31:09.125Z,105.23
2019-02-16T10:33:45.676Z,108.40
2019-02-16T10:36:30.341Z,104.00
2019-02-16T10:39:10.483Z,102.33
2019-02-16T10:42:01.833Z,101.60
2019-02-16T10:44:59.191Z,112.83
2019-02-16T10:47:46.395Z,102.53
2019-02-16T10:50:40.731Z,101.23
2019-02-16T10:53:31.959Z,111.13
2019-02-16T10:56:25.867Z,112.73
2019-02-16T10:59:12.923Z,108.30
2019-02-16T11:02:00.044Z,122.93
2019-02-16T11:04:48.421Z,126.30
2019-02-16T11:07:48.780Z,118.73
2019-02-16T11:10:37.147Z,126.97
2019-02-16T11:13:17.689Z,125.80
2019-02-16T11:16:11.991Z,128.03
2019-02-16T11:19:03.193Z,123.20
2019-02-16T11:21:50.166Z,121.30
2019-02-16T11:24:44.617Z,127.43
2019-02-16T11:27:32.880Z,125.37
2019-02-16T11:30:33.262Z,122.57
2019-02-16T11:33:21.612Z,126.40
2019-02-16T11:36:19.107Z,129.83
2019-02-16T11:39:19.499Z,124.40
2019-02-16T11:42:16.822Z,127.27
2019-02-16T11:45:02.270Z,130.77
2019-02-16T11:48:00.769Z,124.80
2019-02-16T11:50:49.439Z,129.73
2019-02-16T11:53:29.308Z,129.20
2019-02-16T11:56:07.032Z,128.33
2019-02-16T11:58:53.034Z,124.90
2019-02-16T12:01:53.336Z,128.87
2019-02-16T12:04:40.489Z,134.23
2019-02-16T12:07:27.473Z,127.37
2019-02-16T12:10:21.565Z,131.57
2019-02-16T12:13:09.831Z,131.57
2019-02-16T12:15:55.807Z,135.27
2019-02-16T12:18:36.225Z,125.57
2019-02-16T12:21:23.092Z,130.10
2019-02-16T12:24:11.763Z,126.03
2019-02-16T12:26:58.679Z,130.27
2019-02-16T12:29:53.099Z,129.37
2019-02-16T12:32:47.382Z,126.40
2019-02-16T12:35:34.231Z,127.73
2019-02-16T12:38:18.888Z,127.97
2019-02-16T12:40:57.261Z,121.63
2019-02-16T12:43:36.855Z,117.33
2019-02-16T12:46:23.877Z,123.43
2019-02-16T12:49:00.098Z,126.33
2019-02-16T12:52:03.510Z,128.47
2019-02-16T12:54:50.558Z,127.03
2019-02-16T12:57:44.834Z,137.70
2019-02-16T13:00:36.038Z,143.27
2019-02-16T13:03:33.276Z,130.37
2019-02-16T13:06:25.128Z,126.67
2019-02-16T13:09:18.301Z,146.30
2019-02-16T13:12:02.060Z,126.30
2019-02-16T13:14:53.422Z,129.03
2019-02-16T13:17:38.165Z,125.97
2019-02-16T13:20:25.839Z,127.67
2019-02-16T13:23:03.049Z,128.20
2019-02-16T13:25:38.959Z,128.13
2019-02-16T13:28:33.086Z,218.20
2019-02-16T13:31:08.588Z,150.13
2019-02-16T13:34:02.790Z,134.00
2019-02-16T13:36:38.422Z,131.07
2019-02-16T13:39:24.368Z,134.37
2019-02-16T13:42:00.980Z,131.20
2019-02-16T13:44:44.782Z,124.20
2019-02-16T13:47:19.130Z,133.93
2019-02-16T13:50:10.229Z,137.27
2019-02-16T13:52:44.926Z,228.13
2019-02-16T13:55:42.098Z,135.03
2019-02-16T13:58:19.680Z,131.80
2019-02-16T14:01:17.191Z,127.70
2019-02-16T14:04:11.395Z,134.60
2019-02-16T14:07:05.714Z,131.53
2019-02-16T14:09:51.298Z,132.23
2019-02-16T14:12:40.439Z,133.43
2019-02-16T14:15:40.883Z,128.47
2019-02-16T14:18:10.313Z,129.70
2019-02-16T14:20:39.768Z,128.10
2019-02-16T14:23:09.192Z,128.87
2019-02-16T14:25:46.142Z,133.73
2019-02-16T14:28:15.628Z,135.57
2019-02-16T14:30:45.075Z,134.27
2019-02-16T14:33:14.590Z,133.50
2019-02-16T14:35:44.031Z,127.30
2019-02-16T14:38:32.408Z,131.90
2019-02-16T14:41:01.907Z,127.63
2019-02-16T14:43:31.387Z,127.00
2019-02-16T14:46:00.873Z,170.50
2019-02-16T14:48:30.328Z,127.93
2019-02-16T14:50:59.709Z,134.40
2019-02-16T14:53:29.327Z,129.60
2019-02-16T14:55:58.721Z,129.00
2019-02-16T14:58:28.088Z,134.20
2019-02-16T15:00:57.507Z,127.03
2019-02-16T15:03:26.902Z,138.50
2019-02-16T15:05:56.317Z,131.97
2019-02-16T15:08:25.913Z,152.63
2019-02-16T15:10:55.282Z,131.07
2019-02-16T15:13:24.778Z,133.70
2019-02-16T15:15:54.111Z,126.80
2019-02-16T15:18:23.517Z,127.03
2019-02-16T15:20:52.945Z,133.27
2019-02-16T15:23:22.465Z,146.43
2019-02-16T15:26:00.451Z,175.47
2019-02-16T15:28:23.064Z,149.70
2019-02-16T15:30:52.532Z,136.53
2019-02-16T15:33:21.999Z,135.33
2019-02-16T15:35:51.391Z,126.23
2019-02-16T15:38:20.893Z,137.57
2019-02-16T15:40:50.270Z,137.97
2019-02-16T15:43:19.674Z,135.87
2019-02-16T15:45:49.136Z,132.70
2019-02-16T15:48:18.535Z,137.63
2019-02-16T15:50:47.969Z,125.53
2019-02-16T15:53:17.361Z,129.03
2019-02-16T15:55:46.727Z,153.60
2019-02-16T15:58:16.222Z,143.60
2019-02-16T16:00:45.695Z,147.03
2019-02-16T16:03:15.115Z,154.87
2019-02-16T16:05:44.597Z,144.73
2019-02-16T16:08:27.033Z,145.67
2019-02-16T16:11:02.922Z,147.50
2019-02-16T16:14:06.682Z,160.57
2019-02-16T16:16:55.004Z,173.23
2019-02-16T16:19:41.068Z,166.23
2019-02-16T16:22:32.470Z,167.32
2019-02-16T16:25:29.943Z,138.23
2019-02-16T16:28:25.598Z,136.93
2019-02-16T16:31:17.054Z,148.73
2019-02-16T16:33:57.965Z,138.43
2019-02-16T16:36:45.049Z,136.77
2019-02-16T16:39:24.844Z,139.33
2019-02-16T16:42:04.646Z,138.33
2019-02-16T16:44:47.307Z,144.57
2019-02-16T16:47:35.012Z,139.33
2019-02-16T16:50:22.911Z,143.90
2019-02-16T16:53:20.151Z,134.03
2019-02-16T16:56:28.723Z,138.17
2019-02-16T16:59:04.358Z,136.57
2019-02-16T17:01:54.474Z,143.13
2019-02-16T17:04:33.067Z,135.87
2019-02-16T17:07:20.635Z,144.63
2019-02-16T17:10:10.722Z,177.47
2019-02-16T17:12:50.315Z,176.00
2019-02-16T17:15:39.406Z,181.97
2019-02-16T17:18:27.120Z,179.53
2019-02-16T17:21:05.511Z,184.83
2019-02-16T17:23:59.991Z,186.40
2019-02-16T17:26:53.955Z,187.40
2019-02-16T17:29:45.219Z,196.87
2019-02-16T17:32:21.412Z,188.23
2019-02-16T17:35:08.854Z,189.17
2019-02-16T17:37:45.723Z,187.00
2019-02-16T17:40:29.604Z,172.83
2019-02-16T17:43:21.435Z,168.77
2019-02-16T17:46:19.791Z,175.63
2019-02-16T17:49:11.582Z,191.40
2019-02-16T17:52:15.215Z,188.50
2019-02-16T17:55:06.984Z,194.33
2019-02-16T17:57:44.760Z,193.70
2019-02-16T18:00:36.532Z,180.43
2019-02-16T18:03:17.750Z,180.27
2019-02-16T18:06:10.810Z,177.30
2019-02-16T18:08:58.750Z,168.43
2019-02-16T18:12:03.166Z,161.53
2019-02-16T18:14:44.211Z,180.33
2019-02-16T18:17:32.503Z,178.73
2019-02-16T18:20:14.471Z,179.13
2019-02-16T18:23:04.771Z,177.13
2019-02-16T18:25:55.042Z,170.40
2019-02-16T18:28:42.715Z,177.77
2019-02-16T18:31:30.358Z,195.33
2019-02-16T18:34:09.760Z,217.80
2019-02-16T18:36:57.223Z,198.83
2019-02-16T18:39:37.458Z,200.17
2019-02-16T18:42:35.531Z,192.27
2019-02-16T18:45:23.035Z,177.20
2019-02-16T18:48:17.414Z,173.90
2019-02-16T18:51:04.491Z,186.87
2019-02-16T18:53:56.479Z,182.57
2019-02-16T18:56:44.111Z,178.83
2019-02-16T18:59:35.938Z,182.27
2019-02-16T19:02:27.649Z,174.90
2019-02-16T19:05:16.758Z,172.03
2019-02-16T19:08:03.210Z,162.43
2019-02-16T19:10:49.265Z,161.47
2019-02-16T19:13:50.375Z,162.43
2019-02-16T19:16:37.842Z,157.40
2019-02-16T19:19:35.782Z,158.43
2019-02-16T19:22:23.049Z,166.10
2019-02-16T19:25:09.464Z,167.07
2019-02-16T19:27:57.439Z,160.17
2019-02-16T19:30:49.571Z,146.93
2019-02-16T19:33:37.533Z,164.67
2019-02-16T19:36:35.594Z,151.23
2019-02-16T19:39:16.099Z,145.60
2019-02-16T19:42:05.302Z,145.53
2019-02-16T19:44:57.825Z,157.57
2019-02-16T19:48:01.369Z,144.20
2019-02-16T19:50:53.667Z,144.70
2019-02-16T19:53:39.967Z,141.47
2019-02-16T19:56:35.044Z,148.60
2019-02-16T19:59:22.966Z,149.53
2019-02-16T20:02:13.881Z,146.33
2019-02-16T20:05:15.052Z,147.20
2019-02-16T20:07:59.947Z,136.50
2019-02-16T20:10:51.605Z,133.33
2019-02-16T20:13:43.670Z,137.20
2019-02-16T20:16:19.910Z,132.83
2019-02-16T20:19:07.786Z,140.43
2019-02-16T20:21:55.556Z,129.40
2019-02-16T20:24:33.409Z,133.33
2019-02-16T20:27:22.397Z,131.03
2019-02-16T20:30:26.301Z,125.33
2019-02-16T20:33:08.442Z,117.67
2019-02-16T20:35:56.220Z,116.50
2019-02-16T20:38:43.766Z,111.90
2019-02-16T20:41:23.417Z,111.23
2019-02-16T20:44:21.530Z,114.00
2019-02-16T20:47:02.077Z,115.20
2019-02-16T20:49:40.506Z,120.07
2019-02-16T20:52:19.374Z,113.73
2019-02-16T20:54:58.356Z,114.13
2019-02-16T20:57:48.081Z,113.70
2019-02-16T21:00:53.716Z,116.20
2019-02-16T21:03:41.165Z,134.43
2019-02-16T21:06:48.232Z,121.63
2019-02-16T21:09:49.135Z,122.23
2019-02-16T21:12:36.564Z,141.30
2019-02-16T21:15:25.782Z,132.27
2019-02-16T21:18:13.287Z,124.97
2019-02-16T21:20:53.784Z,116.37
2019-02-16T21:23:51.604Z,109.23
2019-02-16T21:26:39.642Z,113.70
2019-02-16T21:29:20.106Z,108.60
2019-02-16T21:32:11.945Z,108.17
2019-02-16T21:34:59.383Z,107.80
2019-02-16T21:37:51.234Z,108.23
2019-02-16T21:40:37.771Z,103.77
2019-02-16T21:43:24.684Z,98.93
2019-02-16T21:46:01.725Z,98.33
2019-02-16T21:48:39.657Z,103.73
2019-02-16T21:51:20.990Z,96.70
2019-02-16T21:54:21.294Z,92.70
2019-02-16T21:57:27.827Z,104.57
2019-02-16T22:00:13.732Z,124.27
2019-02-16T22:03:10.940Z,100.63
2019-02-16T22:06:04.971Z,96.63
2019-02-16T22:08:51.954Z,88.83
2019-02-16T22:11:43.968Z,88.53
2019-02-16T22:14:13.509Z,92.93
2019-02-16T22:16:42.958Z,89.57
2019-02-16T22:19:12.379Z,89.07
2019-02-16T22:21:41.847Z,96.90
2019-02-16T22:24:11.287Z,97.50
2019-02-16T22:26:40.735Z,98.60
2019-02-16T22:29:10.162Z,91.03
2019-02-16T22:31:39.589Z,84.33
2019-02-16T22:34:09.009Z,92.63
2019-02-16T22:36:38.410Z,96.20
2019-02-16T22:39:08.108Z,80.90
2019-02-16T22:41:37.555Z,86.63
2019-02-16T22:44:07.944Z,85.83
2019-02-16T22:46:37.471Z,85.03
2019-02-16T22:49:06.980Z,84.97
2019-02-16T22:51:36.393Z,89.00
2019-02-16T22:54:05.832Z,87.13
2019-02-16T22:56:35.242Z,78.33
2019-02-16T22:59:04.627Z,71.90
2019-02-16T23:01:34.017Z,71.77
2019-02-16T23:04:03.410Z,75.00
2019-02-16T23:06:32.812Z,77.40
2019-02-16T23:09:02.185Z,71.97
2019-02-16T23:11:31.533Z,70.60
2019-02-16T23:14:01.035Z,67.50
2019-02-16T23:16:30.496Z,72.47
2019-02-16T23:19:00.021Z,78.73
2019-02-16T23:21:29.397Z,77.00
2019-02-16T23:23:59.047Z,72.67
2019-02-16T23:26:29.031Z,75.47
2019-02-16T23:28:58.488Z,71.53
2019-02-16T23:31:27.904Z,69.13
2019-02-16T23:34:16.414Z,71.80
2019-02-16T23:36:45.750Z,74.30
2019-02-16T23:39:15.121Z,76.23
2019-02-16T23:41:44.533Z,78.20
2019-02-16T23:44:13.990Z,88.20
2019-02-16T23:46:43.454Z,83.40
2019-02-16T23:49:12.944Z,81.63
2019-02-16T23:51:42.359Z,90.77
2019-02-16T23:54:11.807Z,94.23
2019-02-16T23:56:41.282Z,82.27
2019-02-16T23:59:10.756Z,91.17
